sensor_id;sensor_type;location;lat;lon;timestamp;pressure;altitude;pressure_sealevel;temperature;humidity
33151;BME280;19508;42.578;23.416;2023-07-31T00:00:33;93378.28;;;20.08;93.57
33151;BME280;19508;42.578;23.416;2023-07-31T00:03:02;93373.16;;;20.15;92.63
33151;BME280;19508;42.578;23.416;2023-07-31T00:05:49;93386.47;;;20.25;92.58
33151;BME280;19508;42.578;23.416;2023-07-31T00:08:24;93370.72;;;20.22;93.62
33151;BME280;19508;42.578;23.416;2023-07-31T00:10:53;93382.63;;;20.35;92.58
33151;BME280;19508;42.578;23.416;2023-07-31T00:13:31;93371.84;;;20.29;92.33
33151;BME280;19508;42.578;23.416;2023-07-31T00:15:56;93368.19;;;20.17;91.80
33151;BME280;19508;42.578;23.416;2023-07-31T00:18:23;93360.47;;;20.10;92.65
33151;BME280;19508;42.578;23.416;2023-07-31T00:20:50;93349.88;;;20.09;92.41
33151;BME280;19508;42.578;23.416;2023-07-31T00:23:17;93375.53;;;20.25;92.77
33151;BME280;19508;42.578;23.416;2023-07-31T00:25:51;93358.19;;;20.21;92.59
33151;BME280;19508;42.578;23.416;2023-07-31T00:28:20;93366.72;;;20.11;93.59
33151;BME280;19508;42.578;23.416;2023-07-31T00:30:51;93371.38;;;20.19;93.45
33151;BME280;19508;42.578;23.416;2023-07-31T00:33:16;93361.91;;;20.08;93.75
33151;BME280;19508;42.578;23.416;2023-07-31T00:35:42;93356.28;;;20.13;92.84
33151;BME280;19508;42.578;23.416;2023-07-31T00:38:07;93353.22;;;20.14;92.36
33151;BME280;19508;42.578;23.416;2023-07-31T00:40:36;93344.06;;;20.19;92.46
33151;BME280;19508;42.578;23.416;2023-07-31T00:43:17;93342.13;;;20.19;93.66
33151;BME280;19508;42.578;23.416;2023-07-31T00:45:44;93347.34;;;20.42;92.94
33151;BME280;19508;42.578;23.416;2023-07-31T00:48:14;93335.03;;;20.27;93.43
33151;BME280;19508;42.578;23.416;2023-07-31T00:50:42;93318.50;;;20.06;94.19
33151;BME280;19508;42.578;23.416;2023-07-31T00:53:08;93311.75;;;20.04;93.48
33151;BME280;19508;42.578;23.416;2023-07-31T00:55:40;93327.81;;;20.05;94.09
33151;BME280;19508;42.578;23.416;2023-07-31T00:58:09;93335.88;;;20.10;93.41
33151;BME280;19508;42.578;23.416;2023-07-31T01:00:42;93339.22;;;20.16;93.75
33151;BME280;19508;42.578;23.416;2023-07-31T01:03:11;93340.19;;;20.20;93.40
33151;BME280;19508;42.578;23.416;2023-07-31T01:11:20;93345.47;;;20.16;94.57
33151;BME280;19508;42.578;23.416;2023-07-31T01:13:56;93331.34;;;20.14;92.82
33151;BME280;19508;42.578;23.416;2023-07-31T01:17:06;93347.88;;;20.35;92.46
33151;BME280;19508;42.578;23.416;2023-07-31T01:19:41;93332.44;;;20.31;92.87
33151;BME280;19508;42.578;23.416;2023-07-31T01:22:35;93336.94;;;20.35;92.78
33151;BME280;19508;42.578;23.416;2023-07-31T01:31:22;93319.31;;;20.07;92.52
33151;BME280;19508;42.578;23.416;2023-07-31T01:34:00;93314.81;;;20.11;91.70
33151;BME280;19508;42.578;23.416;2023-07-31T01:36:56;93320.78;;;19.95;92.52
33151;BME280;19508;42.578;23.416;2023-07-31T01:39:27;93311.31;;;19.93;92.15
33151;BME280;19508;42.578;23.416;2023-07-31T01:42:06;93311.75;;;20.04;91.63
33151;BME280;19508;42.578;23.416;2023-07-31T01:44:43;93318.00;;;20.13;91.98
33151;BME280;19508;42.578;23.416;2023-07-31T01:47:23;93314.38;;;19.65;93.78
33151;BME280;19508;42.578;23.416;2023-07-31T01:49:49;93313.53;;;19.82;93.48
33151;BME280;19508;42.578;23.416;2023-07-31T01:52:21;93313.72;;;19.94;93.05
33151;BME280;19508;42.578;23.416;2023-07-31T01:54:53;93313.38;;;20.05;92.31
33151;BME280;19508;42.578;23.416;2023-07-31T01:57:21;93302.31;;;19.92;92.81
33151;BME280;19508;42.578;23.416;2023-07-31T01:59:48;93312.91;;;20.03;92.43
33151;BME280;19508;42.578;23.416;2023-07-31T02:02:20;93311.44;;;19.96;92.46
33151;BME280;19508;42.578;23.416;2023-07-31T02:05:11;93320.13;;;19.98;91.92
33151;BME280;19508;42.578;23.416;2023-07-31T02:07:46;93322.38;;;19.96;91.21
33151;BME280;19508;42.578;23.416;2023-07-31T02:10:13;93328.97;;;19.95;91.24
33151;BME280;19508;42.578;23.416;2023-07-31T02:13:18;93336.22;;;20.00;90.92
33151;BME280;19508;42.578;23.416;2023-07-31T02:15:45;93320.78;;;19.78;91.60
33151;BME280;19508;42.578;23.416;2023-07-31T02:18:22;93351.78;;;19.91;91.11
33151;BME280;19508;42.578;23.416;2023-07-31T02:20:57;93344.25;;;19.88;91.07
33151;BME280;19508;42.578;23.416;2023-07-31T02:23:32;93335.56;;;19.86;91.28
33151;BME280;19508;42.578;23.416;2023-07-31T02:25:59;93351.31;;;19.89;90.60
33151;BME280;19508;42.578;23.416;2023-07-31T02:28:46;93346.31;;;19.82;90.45
33151;BME280;19508;42.578;23.416;2023-07-31T02:31:55;93353.72;;;19.90;90.31
33151;BME280;19508;42.578;23.416;2023-07-31T02:34:40;93353.91;;;19.77;91.33
33151;BME280;19508;42.578;23.416;2023-07-31T02:37:28;93353.25;;;19.80;92.06
33151;BME280;19508;42.578;23.416;2023-07-31T02:40:45;93353.41;;;19.83;91.60
33151;BME280;19508;42.578;23.416;2023-07-31T02:43:12;93349.91;;;19.74;92.16
33151;BME280;19508;42.578;23.416;2023-07-31T02:45:41;93353.72;;;19.73;92.14
33151;BME280;19508;42.578;23.416;2023-07-31T02:48:11;93346.84;;;19.76;92.07
33151;BME280;19508;42.578;23.416;2023-07-31T02:50:40;93349.06;;;19.82;92.08
33151;BME280;19508;42.578;23.416;2023-07-31T02:53:06;93351.97;;;19.77;92.54
33151;BME280;19508;42.578;23.416;2023-07-31T02:55:33;93332.84;;;19.77;92.04
33151;BME280;19508;42.578;23.416;2023-07-31T02:58:18;93352.44;;;19.79;91.69
33151;BME280;19508;42.578;23.416;2023-07-31T03:00:46;93353.09;;;19.76;92.23
33151;BME280;19508;42.578;23.416;2023-07-31T03:03:13;93348.59;;;19.80;91.69
33151;BME280;19508;42.578;23.416;2023-07-31T03:05:43;93347.31;;;19.86;92.19
33151;BME280;19508;42.578;23.416;2023-07-31T03:08:10;93352.63;;;19.83;91.73
33151;BME280;19508;42.578;23.416;2023-07-31T03:10:39;93347.97;;;19.66;92.55
33151;BME280;19508;42.578;23.416;2023-07-31T03:13:05;93345.50;;;19.56;92.99
33151;BME280;19508;42.578;23.416;2023-07-31T03:15:33;93356.94;;;19.58;93.14
33151;BME280;19508;42.578;23.416;2023-07-31T03:17:59;93342.50;;;19.57;93.09
33151;BME280;19508;42.578;23.416;2023-07-31T03:20:31;93364.34;;;19.66;93.23
33151;BME280;19508;42.578;23.416;2023-07-31T03:22:57;93351.31;;;19.63;93.58
33151;BME280;19508;42.578;23.416;2023-07-31T03:25:29;93365.28;;;19.70;93.92
33151;BME280;19508;42.578;23.416;2023-07-31T03:28:14;93352.28;;;19.58;94.36
33151;BME280;19508;42.578;23.416;2023-07-31T03:31:00;93368.34;;;19.77;94.20
33151;BME280;19508;42.578;23.416;2023-07-31T03:33:35;93358.72;;;19.80;93.67
33151;BME280;19508;42.578;23.416;2023-07-31T03:36:43;93359.19;;;19.90;94.16
33151;BME280;19508;42.578;23.416;2023-07-31T03:39:24;93376.56;;;19.94;94.14
33151;BME280;19508;42.578;23.416;2023-07-31T03:41:55;93380.09;;;19.86;94.57
33151;BME280;19508;42.578;23.416;2023-07-31T03:44:21;93370.91;;;19.91;94.97
33151;BME280;19508;42.578;23.416;2023-07-31T03:46:51;93371.09;;;19.94;95.44
33151;BME280;19508;42.578;23.416;2023-07-31T03:49:19;93358.09;;;19.91;94.46
33151;BME280;19508;42.578;23.416;2023-07-31T03:51:55;93384.41;;;19.96;95.04
33151;BME280;19508;42.578;23.416;2023-07-31T03:54:21;93375.56;;;20.08;94.63
33151;BME280;19508;42.578;23.416;2023-07-31T03:56:52;93380.88;;;20.04;95.04
33151;BME280;19508;42.578;23.416;2023-07-31T03:59:18;93390.19;;;20.20;94.50
33151;BME280;19508;42.578;23.416;2023-07-31T04:01:49;93395.16;;;20.27;94.59
33151;BME280;19508;42.578;23.416;2023-07-31T04:04:16;93385.34;;;20.35;93.35
33151;BME280;19508;42.578;23.416;2023-07-31T04:06:46;93393.72;;;20.29;93.88
33151;BME280;19508;42.578;23.416;2023-07-31T04:09:18;93403.84;;;20.46;94.00
33151;BME280;19508;42.578;23.416;2023-07-31T04:11:45;93401.78;;;20.43;94.04
33151;BME280;19508;42.578;23.416;2023-07-31T04:14:14;93406.72;;;20.41;93.92
33151;BME280;19508;42.578;23.416;2023-07-31T04:16:48;93400.44;;;20.49;93.91
33151;BME280;19508;42.578;23.416;2023-07-31T04:19:19;93403.81;;;20.64;92.78
33151;BME280;19508;42.578;23.416;2023-07-31T04:21:58;93397.84;;;20.70;92.50
33151;BME280;19508;42.578;23.416;2023-07-31T04:24:39;93399.28;;;20.68;93.33
33151;BME280;19508;42.578;23.416;2023-07-31T04:27:04;93400.25;;;20.72;93.56
33151;BME280;19508;42.578;23.416;2023-07-31T04:29:31;93394.75;;;20.80;92.96
33151;BME280;19508;42.578;23.416;2023-07-31T04:31:57;93399.81;;;20.99;91.97
33151;BME280;19508;42.578;23.416;2023-07-31T04:34:22;93393.09;;;20.88;92.08
33151;BME280;19508;42.578;23.416;2023-07-31T04:36:50;93401.44;;;20.92;91.79
33151;BME280;19508;42.578;23.416;2023-07-31T04:39:17;93402.56;;;20.99;92.35
33151;BME280;19508;42.578;23.416;2023-07-31T04:41:46;93406.81;;;21.18;91.71
33151;BME280;19508;42.578;23.416;2023-07-31T04:44:11;93404.69;;;21.23;91.63
33151;BME280;19508;42.578;23.416;2023-07-31T04:46:38;93396.34;;;21.20;91.93
33151;BME280;19508;42.578;23.416;2023-07-31T04:49:07;93392.13;;;21.31;91.00
33151;BME280;19508;42.578;23.416;2023-07-31T04:51:33;93398.75;;;21.30;90.68
33151;BME280;19508;42.578;23.416;2023-07-31T04:54:01;93399.91;;;21.20;88.95
33151;BME280;19508;42.578;23.416;2023-07-31T04:56:33;93391.00;;;21.23;86.33
33151;BME280;19508;42.578;23.416;2023-07-31T04:59:10;93397.91;;;21.38;85.60
33151;BME280;19508;42.578;23.416;2023-07-31T05:01:35;93386.34;;;21.24;85.95
33151;BME280;19508;42.578;23.416;2023-07-31T05:04:01;93380.50;;;21.34;86.14
33151;BME280;19508;42.578;23.416;2023-07-31T05:06:39;93386.25;;;21.11;85.79
33151;BME280;19508;42.578;23.416;2023-07-31T05:09:06;93405.44;;;21.41;84.16
33151;BME280;19508;42.578;23.416;2023-07-31T05:11:36;93404.38;;;21.25;84.05
33151;BME280;19508;42.578;23.416;2023-07-31T05:14:01;93398.88;;;20.95;86.16
33151;BME280;19508;42.578;23.416;2023-07-31T05:16:41;93392.81;;;20.81;84.44
33151;BME280;19508;42.578;23.416;2023-07-31T05:19:07;93398.88;;;20.95;84.26
33151;BME280;19508;42.578;23.416;2023-07-31T05:21:38;93385.19;;;21.25;83.62
33151;BME280;19508;42.578;23.416;2023-07-31T05:24:05;93394.34;;;20.99;84.66
33151;BME280;19508;42.578;23.416;2023-07-31T05:26:47;93392.00;;;21.19;84.23
33151;BME280;19508;42.578;23.416;2023-07-31T05:29:17;93401.25;;;21.05;83.80
33151;BME280;19508;42.578;23.416;2023-07-31T05:31:43;93391.81;;;21.24;83.31
33151;BME280;19508;42.578;23.416;2023-07-31T05:34:10;93401.63;;;21.33;81.48
33151;BME280;19508;42.578;23.416;2023-07-31T05:36:35;93398.03;;;21.03;82.72
33151;BME280;19508;42.578;23.416;2023-07-31T05:39:01;93394.88;;;21.31;83.06
33151;BME280;19508;42.578;23.416;2023-07-31T05:41:33;93390.63;;;21.42;83.54
33151;BME280;19508;42.578;23.416;2023-07-31T05:44:00;93393.75;;;21.53;82.89
33151;BME280;19508;42.578;23.416;2023-07-31T05:46:25;93388.50;;;21.68;82.61
33151;BME280;19508;42.578;23.416;2023-07-31T05:48:51;93387.78;;;21.80;82.04
33151;BME280;19508;42.578;23.416;2023-07-31T05:51:16;93393.59;;;21.79;81.03
33151;BME280;19508;42.578;23.416;2023-07-31T05:53:42;93389.34;;;21.90;80.43
33151;BME280;19508;42.578;23.416;2023-07-31T05:56:08;93387.97;;;21.96;79.32
33151;BME280;19508;42.578;23.416;2023-07-31T05:58:34;93395.31;;;22.04;77.28
33151;BME280;19508;42.578;23.416;2023-07-31T06:00:59;93395.72;;;22.36;77.55
33151;BME280;19508;42.578;23.416;2023-07-31T06:03:25;93397.22;;;22.66;73.76
33151;BME280;19508;42.578;23.416;2023-07-31T06:05:50;93403.50;;;23.00;72.42
33151;BME280;19508;42.578;23.416;2023-07-31T06:08:16;93396.28;;;23.07;72.38
33151;BME280;19508;42.578;23.416;2023-07-31T06:10:41;93405.13;;;23.25;70.67
33151;BME280;19508;42.578;23.416;2023-07-31T06:13:06;93414.63;;;23.77;69.37
33151;BME280;19508;42.578;23.416;2023-07-31T06:15:32;93404.78;;;23.63;67.20
33151;BME280;19508;42.578;23.416;2023-07-31T06:17:57;93408.78;;;23.66;68.25
33151;BME280;19508;42.578;23.416;2023-07-31T06:20:23;93408.66;;;23.38;67.55
33151;BME280;19508;42.578;23.416;2023-07-31T06:22:48;93414.72;;;23.56;66.71
33151;BME280;19508;42.578;23.416;2023-07-31T06:25:13;93403.97;;;23.51;67.88
33151;BME280;19508;42.578;23.416;2023-07-31T06:27:39;93411.41;;;23.38;67.62
33151;BME280;19508;42.578;23.416;2023-07-31T06:30:05;93409.34;;;23.23;65.84
33151;BME280;19508;42.578;23.416;2023-07-31T06:32:30;93411.19;;;23.19;67.60
33151;BME280;19508;42.578;23.416;2023-07-31T06:34:56;93410.78;;;22.96;68.49
33151;BME280;19508;42.578;23.416;2023-07-31T06:37:21;93409.69;;;23.09;67.13
33151;BME280;19508;42.578;23.416;2023-07-31T06:39:46;93414.94;;;23.14;68.53
33151;BME280;19508;42.578;23.416;2023-07-31T06:42:12;93404.88;;;23.18;67.80
33151;BME280;19508;42.578;23.416;2023-07-31T06:44:37;93409.25;;;23.44;66.48
33151;BME280;19508;42.578;23.416;2023-07-31T06:47:03;93404.44;;;23.53;63.76
33151;BME280;19508;42.578;23.416;2023-07-31T06:49:28;93397.69;;;24.15;63.23
33151;BME280;19508;42.578;23.416;2023-07-31T06:51:53;93402.59;;;24.62;62.13
33151;BME280;19508;42.578;23.416;2023-07-31T06:54:19;93392.31;;;25.18;58.78
33151;BME280;19508;42.578;23.416;2023-07-31T06:56:44;93394.50;;;25.44;57.66
33151;BME280;19508;42.578;23.416;2023-07-31T06:59:10;93395.44;;;25.99;56.70
33151;BME280;19508;42.578;23.416;2023-07-31T07:01:35;93390.09;;;26.84;53.83
33151;BME280;19508;42.578;23.416;2023-07-31T07:04:01;93402.25;;;27.44;51.11
33151;BME280;19508;42.578;23.416;2023-07-31T07:06:26;93387.97;;;27.88;48.58
33151;BME280;19508;42.578;23.416;2023-07-31T07:08:52;93393.22;;;28.27;50.01
33151;BME280;19508;42.578;23.416;2023-07-31T07:11:17;93402.31;;;27.48;49.76
33151;BME280;19508;42.578;23.416;2023-07-31T07:13:43;93398.53;;;27.60;49.24
33151;BME280;19508;42.578;23.416;2023-07-31T07:16:08;93397.34;;;28.36;47.48
33151;BME280;19508;42.578;23.416;2023-07-31T07:18:35;93390.16;;;28.96;45.53
33151;BME280;19508;42.578;23.416;2023-07-31T07:21:01;93385.19;;;28.78;46.47
33151;BME280;19508;42.578;23.416;2023-07-31T07:23:27;93385.69;;;28.87;45.68
33151;BME280;19508;42.578;23.416;2023-07-31T07:25:53;93386.88;;;28.86;46.85
33151;BME280;19508;42.578;23.416;2023-07-31T07:28:18;93383.97;;;28.42;44.47
33151;BME280;19508;42.578;23.416;2023-07-31T07:30:43;93387.03;;;28.07;45.66
33151;BME280;19508;42.578;23.416;2023-07-31T07:33:09;93389.41;;;28.35;48.39
33151;BME280;19508;42.578;23.416;2023-07-31T07:35:34;93391.19;;;28.20;46.53
33151;BME280;19508;42.578;23.416;2023-07-31T07:38:03;93410.56;;;26.83;48.75
33151;BME280;19508;42.578;23.416;2023-07-31T07:40:29;93395.16;;;27.01;48.27
33151;BME280;19508;42.578;23.416;2023-07-31T07:42:54;93401.41;;;26.98;50.14
33151;BME280;19508;42.578;23.416;2023-07-31T07:45:20;93415.47;;;26.51;51.75
33151;BME280;19508;42.578;23.416;2023-07-31T07:47:45;93418.31;;;26.00;50.85
33151;BME280;19508;42.578;23.416;2023-07-31T07:50:11;93417.38;;;25.76;50.79
33151;BME280;19508;42.578;23.416;2023-07-31T07:52:37;93419.50;;;25.36;51.38
33151;BME280;19508;42.578;23.416;2023-07-31T07:55:03;93419.66;;;25.58;52.76
33151;BME280;19508;42.578;23.416;2023-07-31T07:57:28;93430.44;;;25.79;51.03
33151;BME280;19508;42.578;23.416;2023-07-31T07:59:54;93428.31;;;25.73;50.47
33151;BME280;19508;42.578;23.416;2023-07-31T08:02:19;93438.78;;;25.36;52.25
33151;BME280;19508;42.578;23.416;2023-07-31T08:04:44;93431.75;;;25.07;53.77
33151;BME280;19508;42.578;23.416;2023-07-31T08:07:11;93426.59;;;25.21;55.28
33151;BME280;19508;42.578;23.416;2023-07-31T08:09:37;93425.56;;;25.41;53.18
33151;BME280;19508;42.578;23.416;2023-07-31T08:12:03;93427.03;;;25.86;53.00
33151;BME280;19508;42.578;23.416;2023-07-31T08:14:29;93419.13;;;26.20;50.52
33151;BME280;19508;42.578;23.416;2023-07-31T08:16:54;93421.41;;;26.72;50.05
33151;BME280;19508;42.578;23.416;2023-07-31T08:19:19;93421.91;;;26.97;49.26
33151;BME280;19508;42.578;23.416;2023-07-31T08:21:45;93417.78;;;27.30;49.00
33151;BME280;19508;42.578;23.416;2023-07-31T08:24:10;93417.38;;;27.73;48.01
33151;BME280;19508;42.578;23.416;2023-07-31T08:26:36;93415.16;;;27.37;47.78
33151;BME280;19508;42.578;23.416;2023-07-31T08:29:01;93404.81;;;28.06;46.67
33151;BME280;19508;42.578;23.416;2023-07-31T08:31:26;93416.41;;;28.15;45.45
33151;BME280;19508;42.578;23.416;2023-07-31T08:33:55;93411.72;;;28.19;44.37
33151;BME280;19508;42.578;23.416;2023-07-31T08:36:21;93411.63;;;28.38;43.52
33151;BME280;19508;42.578;23.416;2023-07-31T08:38:46;93410.19;;;28.52;43.97
33151;BME280;19508;42.578;23.416;2023-07-31T08:41:12;93416.91;;;28.81;43.50
33151;BME280;19508;42.578;23.416;2023-07-31T08:43:39;93414.69;;;28.93;43.00
33151;BME280;19508;42.578;23.416;2023-07-31T08:46:04;93420.91;;;28.87;43.88
33151;BME280;19508;42.578;23.416;2023-07-31T08:48:31;93424.56;;;28.91;43.64
33151;BME280;19508;42.578;23.416;2023-07-31T08:50:57;93417.06;;;28.95;43.85
33151;BME280;19508;42.578;23.416;2023-07-31T08:53:23;93421.34;;;28.89;41.88
33151;BME280;19508;42.578;23.416;2023-07-31T08:55:49;93420.53;;;29.22;42.33
33151;BME280;19508;42.578;23.416;2023-07-31T08:58:15;93413.94;;;29.37;42.78
33151;BME280;19508;42.578;23.416;2023-07-31T09:00:42;93422.19;;;29.30;42.07
33151;BME280;19508;42.578;23.416;2023-07-31T09:03:13;93431.09;;;28.79;42.17
33151;BME280;19508;42.578;23.416;2023-07-31T09:05:42;93422.47;;;28.51;42.33
33151;BME280;19508;42.578;23.416;2023-07-31T09:08:09;93424.28;;;28.40;41.61
33151;BME280;19508;42.578;23.416;2023-07-31T09:10:40;93420.88;;;28.83;43.28
33151;BME280;19508;42.578;23.416;2023-07-31T09:13:06;93407.66;;;29.00;40.40
33151;BME280;19508;42.578;23.416;2023-07-31T09:15:33;93403.59;;;28.93;41.74
33151;BME280;19508;42.578;23.416;2023-07-31T09:18:00;93415.06;;;29.29;41.23
33151;BME280;19508;42.578;23.416;2023-07-31T09:20:28;93398.16;;;29.01;41.48
33151;BME280;19508;42.578;23.416;2023-07-31T09:22:54;93404.81;;;29.33;41.37
33151;BME280;19508;42.578;23.416;2023-07-31T09:25:25;93410.91;;;28.79;40.70
33151;BME280;19508;42.578;23.416;2023-07-31T09:27:58;93402.66;;;28.82;42.14
33151;BME280;19508;42.578;23.416;2023-07-31T09:30:24;93398.41;;;29.26;41.25
33151;BME280;19508;42.578;23.416;2023-07-31T09:32:50;93402.66;;;29.16;40.14
33151;BME280;19508;42.578;23.416;2023-07-31T09:35:32;93397.56;;;29.21;39.75
33151;BME280;19508;42.578;23.416;2023-07-31T09:40:53;93385.38;;;29.74;41.24
33151;BME280;19508;42.578;23.416;2023-07-31T09:43:20;93382.97;;;29.69;39.95
33151;BME280;19508;42.578;23.416;2023-07-31T09:45:46;93391.75;;;29.34;38.36
33151;BME280;19508;42.578;23.416;2023-07-31T09:48:17;93389.38;;;29.80;39.29
33151;BME280;19508;42.578;23.416;2023-07-31T09:50:47;93388.53;;;30.27;41.01
33151;BME280;19508;42.578;23.416;2023-07-31T09:53:15;93392.09;;;29.73;37.35
33151;BME280;19508;42.578;23.416;2023-07-31T09:55:41;93387.00;;;29.82;37.13
33151;BME280;19508;42.578;23.416;2023-07-31T09:58:09;93386.13;;;29.71;37.96
33151;BME280;19508;42.578;23.416;2023-07-31T10:00:35;93379.06;;;29.81;38.58
33151;BME280;19508;42.578;23.416;2023-07-31T10:03:04;93384.66;;;30.50;37.36
33151;BME280;19508;42.578;23.416;2023-07-31T10:05:49;93386.72;;;30.64;38.16
33151;BME280;19508;42.578;23.416;2023-07-31T10:08:16;93387.28;;;30.94;36.93
33151;BME280;19508;42.578;23.416;2023-07-31T10:10:45;93384.44;;;30.80;38.01
33151;BME280;19508;42.578;23.416;2023-07-31T10:13:12;93376.53;;;30.89;35.96
33151;BME280;19508;42.578;23.416;2023-07-31T10:15:38;93392.38;;;30.85;37.44
33151;BME280;19508;42.578;23.416;2023-07-31T10:18:06;93384.75;;;30.64;36.74
33151;BME280;19508;42.578;23.416;2023-07-31T10:20:32;93375.69;;;30.85;37.54
33151;BME280;19508;42.578;23.416;2023-07-31T10:22:57;93370.91;;;30.75;37.92
33151;BME280;19508;42.578;23.416;2023-07-31T10:25:26;93374.19;;;31.09;37.75
33151;BME280;19508;42.578;23.416;2023-07-31T10:27:52;93372.22;;;31.16;36.74
33151;BME280;19508;42.578;23.416;2023-07-31T10:30:20;93370.13;;;30.71;37.04
33151;BME280;19508;42.578;23.416;2023-07-31T10:32:48;93373.63;;;29.95;38.66
33151;BME280;19508;42.578;23.416;2023-07-31T10:35:16;93366.78;;;30.40;36.42
33151;BME280;19508;42.578;23.416;2023-07-31T10:37:43;93362.72;;;30.20;38.08
33151;BME280;19508;42.578;23.416;2023-07-31T10:40:19;93362.88;;;30.59;38.75
33151;BME280;19508;42.578;23.416;2023-07-31T10:42:55;93357.91;;;30.10;37.28
33151;BME280;19508;42.578;23.416;2023-07-31T10:45:35;93369.72;;;30.03;36.84
33151;BME280;19508;42.578;23.416;2023-07-31T10:48:12;93360.94;;;30.59;37.45
33151;BME280;19508;42.578;23.416;2023-07-31T10:50:46;93357.59;;;31.37;36.06
33151;BME280;19508;42.578;23.416;2023-07-31T10:53:26;93360.38;;;31.30;38.11
33151;BME280;19508;42.578;23.416;2023-07-31T10:55:52;93360.09;;;30.59;35.11
33151;BME280;19508;42.578;23.416;2023-07-31T10:58:21;93360.91;;;29.90;36.33
33151;BME280;19508;42.578;23.416;2023-07-31T11:00:47;93344.22;;;29.83;36.44
33151;BME280;19508;42.578;23.416;2023-07-31T11:03:17;93352.28;;;30.02;35.61
33151;BME280;19508;42.578;23.416;2023-07-31T11:05:52;93350.19;;;30.58;35.88
33151;BME280;19508;42.578;23.416;2023-07-31T11:10:47;93341.34;;;30.27;36.04
33151;BME280;19508;42.578;23.416;2023-07-31T11:13:13;93346.06;;;29.65;36.90
33151;BME280;19508;42.578;23.416;2023-07-31T11:15:39;93347.44;;;29.41;36.64
33151;BME280;19508;42.578;23.416;2023-07-31T11:18:04;93328.91;;;29.48;37.36
33151;BME280;19508;42.578;23.416;2023-07-31T11:20:34;93341.63;;;29.49;36.42
33151;BME280;19508;42.578;23.416;2023-07-31T11:23:01;93344.91;;;29.66;37.08
33151;BME280;19508;42.578;23.416;2023-07-31T11:25:29;93337.88;;;29.83;36.95
33151;BME280;19508;42.578;23.416;2023-07-31T11:27:55;93327.94;;;30.44;35.96
33151;BME280;19508;42.578;23.416;2023-07-31T11:30:21;93339.22;;;30.97;36.79
33151;BME280;19508;42.578;23.416;2023-07-31T11:32:47;93331.22;;;30.74;33.55
33151;BME280;19508;42.578;23.416;2023-07-31T11:35:12;93322.56;;;30.97;35.62
33151;BME280;19508;42.578;23.416;2023-07-31T11:37:39;93337.63;;;30.96;33.09
33151;BME280;19508;42.578;23.416;2023-07-31T11:40:06;93336.38;;;30.72;35.33
33151;BME280;19508;42.578;23.416;2023-07-31T11:42:31;93334.91;;;30.13;35.53
33151;BME280;19508;42.578;23.416;2023-07-31T11:44:56;93335.63;;;30.06;35.21
33151;BME280;19508;42.578;23.416;2023-07-31T11:47:22;93333.16;;;29.87;35.86
33151;BME280;19508;42.578;23.416;2023-07-31T11:49:48;93338.28;;;29.85;34.93
33151;BME280;19508;42.578;23.416;2023-07-31T11:52:14;93326.44;;;29.40;37.40
33151;BME280;19508;42.578;23.416;2023-07-31T11:54:40;93322.75;;;29.25;35.35
33151;BME280;19508;42.578;23.416;2023-07-31T11:57:07;93324.91;;;29.02;36.98
33151;BME280;19508;42.578;23.416;2023-07-31T11:59:33;93325.31;;;29.04;37.19
33151;BME280;19508;42.578;23.416;2023-07-31T12:01:59;93321.25;;;28.90;36.96
33151;BME280;19508;42.578;23.416;2023-07-31T12:04:24;93313.25;;;29.26;38.58
33151;BME280;19508;42.578;23.416;2023-07-31T12:06:52;93319.09;;;29.62;35.99
33151;BME280;19508;42.578;23.416;2023-07-31T12:09:18;93313.88;;;30.12;35.21
33151;BME280;19508;42.578;23.416;2023-07-31T12:11:44;93311.44;;;30.06;35.76
33151;BME280;19508;42.578;23.416;2023-07-31T12:14:41;93314.44;;;30.49;35.35
33151;BME280;19508;42.578;23.416;2023-07-31T12:17:07;93308.81;;;30.28;37.12
33151;BME280;19508;42.578;23.416;2023-07-31T12:19:33;93305.63;;;30.29;35.85
33151;BME280;19508;42.578;23.416;2023-07-31T12:22:00;93302.66;;;30.81;35.18
33151;BME280;19508;42.578;23.416;2023-07-31T12:24:26;93298.69;;;30.78;35.71
33151;BME280;19508;42.578;23.416;2023-07-31T12:26:52;93294.69;;;30.76;34.82
33151;BME280;19508;42.578;23.416;2023-07-31T12:29:18;93283.53;;;30.61;34.70
33151;BME280;19508;42.578;23.416;2023-07-31T12:31:44;93297.94;;;31.17;34.29
33151;BME280;19508;42.578;23.416;2023-07-31T12:34:20;93286.03;;;31.52;34.21
33151;BME280;19508;42.578;23.416;2023-07-31T12:36:46;93287.63;;;31.67;34.68
33151;BME280;19508;42.578;23.416;2023-07-31T12:39:14;93283.69;;;31.40;34.56
33151;BME280;19508;42.578;23.416;2023-07-31T12:41:39;93279.66;;;31.16;33.39
33151;BME280;19508;42.578;23.416;2023-07-31T12:44:05;93285.22;;;31.02;34.18
33151;BME280;19508;42.578;23.416;2023-07-31T12:46:30;93278.03;;;30.72;33.74
33151;BME280;19508;42.578;23.416;2023-07-31T12:48:55;93278.38;;;30.64;34.86
33151;BME280;19508;42.578;23.416;2023-07-31T12:51:21;93272.94;;;31.13;34.06
33151;BME280;19508;42.578;23.416;2023-07-31T12:53:46;93268.13;;;30.89;34.67
33151;BME280;19508;42.578;23.416;2023-07-31T12:56:12;93264.53;;;30.74;35.66
33151;BME280;19508;42.578;23.416;2023-07-31T12:58:37;93254.66;;;31.27;34.90
33151;BME280;19508;42.578;23.416;2023-07-31T13:01:02;93257.28;;;32.19;33.30
33151;BME280;19508;42.578;23.416;2023-07-31T13:03:28;93262.03;;;33.62;30.75
33151;BME280;19508;42.578;23.416;2023-07-31T13:05:54;93258.25;;;35.12;29.16
33151;BME280;19508;42.578;23.416;2023-07-31T13:08:20;93250.31;;;36.67;28.24
33151;BME280;19508;42.578;23.416;2023-07-31T13:10:45;93249.00;;;36.92;25.36
33151;BME280;19508;42.578;23.416;2023-07-31T13:13:10;93244.28;;;36.69;25.45
33151;BME280;19508;42.578;23.416;2023-07-31T13:15:36;93239.28;;;35.74;27.06
33151;BME280;19508;42.578;23.416;2023-07-31T13:18:01;93260.22;;;34.58;28.20